Time;durP1;ratioP1;P1;durP2;ratioP2;P2;SDS_P1;SDS_P2;PMS_P1;PMS_P2;Temp;Humidity;BMP_temperature;BMP_pressure;BME280_temperature;BME280_humidity;BME280_pressure;Samples;Min_cycle;Max_cycle;Signal;HPM_P1;HPM_P2
2022/12/11 00:01:11;;;;;;;47.22;20.80;;;;;;;0.54;68.33;98537.28;5097717;29;20126;-72
2022/12/11 00:04:01;;;;;;;48.25;19.65;;;;;;;0.58;67.78;98536.16;5084384;29;20549;-71
2022/12/11 00:06:52;;;;;;;49.28;21.73;;;;;;;0.73;67.20;98531.78;5099976;29;20126;-71
2022/12/11 00:09:42;;;;;;;47.47;19.17;;;;;;;0.79;67.34;98541.00;5087186;29;20142;-71
2022/12/11 00:12:32;;;;;;;42.38;18.17;;;;;;;0.76;66.88;98533.34;5102598;29;20560;-73
2022/12/11 00:15:25;;;;;;;46.23;19.63;;;;;;;0.67;66.64;98530.38;5075066;29;20151;-71
2022/12/11 00:18:15;;;;;;;47.55;19.55;;;;;;;0.58;66.13;98519.66;5089638;29;20063;-73
2022/12/11 00:21:07;;;;;;;38.47;17.67;;;;;;;0.68;66.77;98529.44;5084117;29;20059;-72
2022/12/11 00:23:58;;;;;;;39.00;16.48;;;;;;;0.59;66.97;98531.78;5093129;29;20063;-70
2022/12/11 00:26:48;;;;;;;38.10;17.50;;;;;;;0.69;66.52;98532.88;5101630;29;20426;-70
2022/12/11 00:29:38;;;;;;;41.20;16.83;;;;;;;0.72;66.83;98535.31;5077868;29;20048;-69
2022/12/11 00:32:28;;;;;;;39.38;17.33;;;;;;;0.75;66.50;98537.75;5097435;29;20570;-70
2022/12/11 00:35:25;;;;;;;39.70;18.58;;;;;;;0.84;67.39;98531.97;5082106;29;20079;-71
2022/12/11 00:38:18;;;;;;;41.33;18.63;;;;;;;0.87;66.81;98542.22;5077112;29;20089;-71
2022/12/11 00:41:08;;;;;;;44.30;19.77;;;;;;;0.97;67.59;98537.28;5084653;29;20051;-71
2022/12/11 00:43:58;;;;;;;44.15;19.90;;;;;;;1.02;67.96;98529.16;5094717;29;20048;-72
2022/12/11 00:46:48;;;;;;;39.22;19.23;;;;;;;1.06;67.48;98533.22;5098635;29;20202;-71
2022/12/11 00:49:38;;;;;;;40.55;19.25;;;;;;;1.01;67.60;98532.69;5095010;29;20054;-72
2022/12/11 00:52:28;;;;;;;44.05;18.98;;;;;;;1.01;67.24;98537.91;5088434;29;20195;-71
2022/12/11 00:55:18;;;;;;;40.80;18.58;;;;;;;1.00;67.46;98537.09;5082346;29;20055;-70
2022/12/11 00:58:08;;;;;;;41.95;18.92;;;;;;;0.98;66.54;98518.06;5094440;29;20055;-72
2022/12/11 01:01:05;;;;;;;43.00;19.50;;;;;;;1.07;67.49;98522.72;5080244;29;20059;-72
2022/12/11 01:03:56;;;;;;;43.63;18.75;;;;;;;1.10;66.90;98526.91;5086313;29;20183;-72
2022/12/11 01:06:46;;;;;;;43.47;20.45;;;;;;;1.16;66.60;98529.97;5082249;29;20055;-71
2022/12/11 01:12:45;;;;;;;39.35;17.70;;;;;;;1.05;67.03;98521.94;5083033;29;20063;-70
2022/12/11 01:15:41;;;;;;;43.92;18.90;;;;;;;1.20;66.32;98548.06;5083833;29;20079;-72
2022/12/11 01:18:32;;;;;;;42.25;19.02;;;;;;;1.18;66.33;98548.97;5083787;29;20067;-71
2022/12/11 01:21:22;;;;;;;45.67;19.95;;;;;;;1.25;65.89;98551.22;5096718;29;20067;-70
2022/12/11 01:24:11;;;;;;;41.78;18.98;;;;;;;1.16;66.33;98553.47;5101210;29;20291;-71
2022/12/11 01:27:01;;;;;;;49.50;20.55;;;;;;;1.20;65.54;98541.06;5089959;29;20111;-72
2022/12/11 01:29:52;;;;;;;40.67;18.27;;;;;;;1.22;65.84;98547.00;5082699;29;20707;-73
2022/12/11 01:32:41;;;;;;;47.35;20.30;;;;;;;1.25;65.99;98556.44;5085743;29;20328;-72
2022/12/11 01:35:31;;;;;;;43.30;19.65;;;;;;;1.14;66.95;98550.13;5097929;29;20043;-72
2022/12/11 01:38:21;;;;;;;46.85;20.30;;;;;;;1.16;66.29;98552.66;5081235;29;20528;-70
2022/12/11 01:41:12;;;;;;;42.10;20.25;;;;;;;1.12;66.33;98556.34;5094219;29;20114;-70
2022/12/11 01:44:27;;;;;;;44.05;20.55;;;;;;;1.14;66.68;98554.50;5082073;29;20096;-71
2022/12/11 01:47:17;;;;;;;42.38;20.23;;;;;;;1.11;65.76;98541.63;5082479;29;20086;-70
2022/12/11 01:50:07;;;;;;;43.72;19.92;;;;;;;1.20;65.94;98550.69;5074781;29;20070;-71
2022/12/11 01:52:58;;;;;;;47.38;20.70;;;;;;;1.07;66.47;98548.81;5075843;29;20064;-71
2022/12/11 01:55:52;;;;;;;42.42;20.25;;;;;;;1.11;66.43;98549.47;5087141;29;20122;-68
2022/12/11 01:58:50;;;;;;;57.85;24.58;;;;;;;1.16;66.70;98563.94;5089303;29;20059;-72
2022/12/11 02:01:49;;;;;;;55.72;23.85;;;;;;;1.26;66.08;98565.94;5079606;29;20158;-70
2022/12/11 02:04:41;;;;;;;58.15;24.80;;;;;;;1.19;66.80;98562.88;5088133;29;20434;-72
2022/12/11 02:07:37;;;;;;;59.80;24.08;;;;;;;1.22;65.71;98565.28;5085061;29;20068;-70
2022/12/11 02:10:56;;;;;;;51.90;23.02;;;;;;;1.15;66.70;98543.13;5082692;29;20103;-71
2022/12/11 02:14:01;;;;;;;52.15;23.27;;;;;;;1.19;66.50;98562.88;5084987;29;20055;-71
2022/12/11 02:17:00;;;;;;;50.42;21.42;;;;;;;1.22;66.60;98582.75;5085291;29;20050;-70
2022/12/11 02:19:59;;;;;;;50.38;23.52;;;;;;;1.19;65.93;98581.16;5083496;29;20074;-72
2022/12/11 02:23:11;;;;;;;50.20;22.30;;;;;;;1.28;66.19;98582.34;5091631;29;20416;-71
2022/12/11 02:26:18;;;;;;;44.05;21.08;;;;;;;1.35;66.23;98581.88;5093367;29;20048;-71
2022/12/11 02:29:19;;;;;;;47.97;20.88;;;;;;;1.38;66.68;98573.84;5088856;29;20503;-69
2022/12/11 02:32:15;;;;;;;45.90;21.35;;;;;;;1.36;66.23;98569.69;5080604;29;20048;-69
2022/12/11 02:35:09;;;;;;;48.95;20.08;;;;;;;1.32;66.19;98561.16;5098541;29;20139;-72
2022/12/11 02:38:06;;;;;;;44.22;20.77;;;;;;;1.39;66.36;98559.00;5073557;29;20479;-70
2022/12/11 02:40:58;;;;;;;51.08;20.85;;;;;;;1.23;66.09;98559.16;5072990;29;20132;-72
2022/12/11 02:43:50;;;;;;;43.85;19.83;;;;;;;1.32;65.10;98555.09;5072393;29;20074;-70
2022/12/11 02:46:43;;;;;;;45.88;19.70;;;;;;;1.27;66.00;98558.03;5094738;29;20061;-70
2022/12/11 02:49:34;;;;;;;43.28;20.63;;;;;;;0.86;67.44;98561.44;5084953;29;20225;-72
2022/12/11 02:52:25;;;;;;;49.67;21.77;;;;;;;1.27;66.24;98560.63;5105036;29;20063;-70
2022/12/11 02:55:16;;;;;;;47.42;21.38;;;;;;;1.21;65.63;98561.00;5083624;29;20075;-72
2022/12/11 02:58:20;;;;;;;51.03;23.67;;;;;;;1.35;66.48;98571.41;5082096;29;20526;-69
2022/12/11 03:01:10;;;;;;;53.78;23.50;;;;;;;1.33;66.36;98554.19;5090637;29;20048;-71
2022/12/11 03:04:01;;;;;;;53.58;23.20;;;;;;;1.28;65.84;98562.31;5078799;29;20056;-70
2022/12/11 03:06:55;;;;;;;51.63;22.80;;;;;;;1.19;66.20;98562.88;5085016;29;20146;-71
2022/12/11 03:09:47;;;;;;;51.80;23.00;;;;;;;1.49;66.52;98567.09;5083469;29;20199;-69
2022/12/11 03:12:41;;;;;;;53.88;23.50;;;;;;;1.39;66.17;98569.47;5085942;29;20775;-72
2022/12/11 03:15:40;;;;;;;;;;;;;;;1.32;66.38;98571.63;5069583;29;20085;-72
2022/12/11 03:18:40;;;;;;;52.90;22.50;;;;;;;1.40;66.52;98568.53;5085102;29;19929;-72
2022/12/11 03:21:37;;;;;;;56.50;23.27;;;;;;;1.16;67.29;98565.69;5085077;29;20135;-71
2022/12/11 03:24:51;;;;;;;59.13;24.55;;;;;;;1.46;66.43;98567.28;5092731;29;20073;-70
2022/12/11 03:27:49;;;;;;;55.67;24.38;;;;;;;1.48;65.87;98563.66;5096484;29;20063;-69
2022/12/11 03:30:40;;;;;;;56.13;23.63;;;;;;;1.31;66.39;98572.56;5083318;29;20074;-70
2022/12/11 03:33:36;;;;;;;55.38;22.52;;;;;;;1.19;67.02;98549.81;5087647;29;20071;-71
2022/12/11 03:36:32;;;;;;;58.65;24.77;;;;;;;1.24;67.06;98549.53;5066663;29;20084;-71
2022/12/11 03:39:32;;;;;;;56.65;24.15;;;;;;;1.35;66.70;98570.59;5088372;29;20062;-71
2022/12/11 03:42:23;;;;;;;60.90;24.27;;;;;;;1.38;66.69;98568.63;5072631;29;20056;-71
2022/12/11 03:45:14;;;;;;;56.42;25.08;;;;;;;1.31;66.43;98556.88;5096369;29;20052;-72
2022/12/11 03:48:07;;;;;;;55.58;22.52;;;;;;;1.43;66.52;98551.84;5092183;29;20051;-71
2022/12/11 03:50:59;;;;;;;54.58;23.63;;;;;;;1.41;66.48;98547.53;5087772;29;20191;-72
2022/12/11 03:53:50;;;;;;;60.70;25.55;;;;;;;1.35;65.48;98536.63;5096412;29;20405;-72
2022/12/11 03:56:43;;;;;;;52.13;23.80;;;;;;;1.64;65.90;98543.44;5090548;29;20048;-70
2022/12/11 03:59:33;;;;;;;61.67;24.92;;;;;;;1.38;66.14;98531.22;5093727;29;20062;-71
2022/12/11 04:02:23;;;;;;;53.50;23.73;;;;;;;1.29;66.30;98526.56;5092374;29;20064;-71
2022/12/11 04:05:14;;;;;;;57.00;24.63;;;;;;;1.33;66.44;98543.75;5096724;29;20056;-72
2022/12/11 04:08:04;;;;;;;56.90;24.02;;;;;;;1.25;67.59;98536.38;5086302;29;20171;-72
2022/12/11 04:24:13;;;;;;;57.35;24.65;;;;;;;1.52;65.51;98527.72;5092014;29;20062;-70
2022/12/11 04:26:45;;;;;;;57.10;24.75;;;;;;;1.25;67.47;98538.97;5095315;29;20055;-71
2022/12/11 04:29:35;;;;;;;61.78;26.83;;;;;;;1.33;67.13;98544.59;5069078;29;20131;-68
2022/12/11 04:32:25;;;;;;;67.20;26.42;;;;;;;1.40;67.18;98551.09;5073500;29;20199;-71
2022/12/11 04:35:15;;;;;;;68.60;26.55;;;;;;;1.22;67.39;98541.78;5088300;29;20050;-70
2022/12/11 04:38:05;;;;;;;61.25;25.17;;;;;;;1.19;68.21;98534.13;5091392;29;20062;-70
2022/12/11 04:40:59;;;;;;;65.50;27.23;;;;;;;0.36;69.18;98531.38;5092857;29;20056;-72
2022/12/11 04:43:49;;;;;;;62.03;26.65;;;;;;;0.72;69.53;98545.75;5093663;29;20624;-72
2022/12/11 04:46:39;;;;;;;68.05;26.25;;;;;;;0.78;68.29;98515.84;5119211;22;20147;-81
2022/12/11 04:49:30;;;;;;;59.35;25.67;;;;;;;0.82;68.80;98533.81;5124793;28;20171;-82
2022/12/11 04:52:20;;;;;;;63.80;26.30;;;;;;;0.91;68.67;98533.25;5130451;29;20083;-81
2022/12/11 04:55:11;;;;;;;60.50;25.80;;;;;;;0.88;67.69;98525.63;5164436;28;20110;-81
2022/12/11 04:58:01;;;;;;;57.63;24.33;;;;;;;0.76;69.28;98530.75;5105446;29;20131;-81
2022/12/11 05:00:52;;;;;;;61.17;26.52;;;;;;;0.86;67.54;98518.81;5110724;23;20194;-75
2022/12/11 05:03:42;;;;;;;64.63;25.52;;;;;;;0.79;67.95;98507.06;5120691;29;20498;-75
2022/12/11 05:06:32;;;;;;;61.10;25.50;;;;;;;0.94;67.95;98535.69;5112896;29;20058;-76
2022/12/11 05:09:22;;;;;;;59.67;25.42;;;;;;;0.84;67.81;98547.63;5115185;29;20058;-76
2022/12/11 05:12:12;;;;;;;64.65;24.40;;;;;;;0.64;68.38;98524.53;5118381;29;20054;-75
2022/12/11 05:15:03;;;;;;;58.58;25.25;;;;;;;0.76;68.35;98544.63;5104943;29;20040;-75
2022/12/11 05:17:53;;;;;;;61.88;25.05;;;;;;;0.96;67.39;98537.34;5104622;29;20483;-75
2022/12/11 05:20:43;;;;;;;61.75;25.15;;;;;;;0.96;67.41;98535.59;5092532;29;20198;-74
2022/12/11 05:23:34;;;;;;;65.07;25.30;;;;;;;0.86;67.78;98518.81;5113152;29;20058;-75
2022/12/11 05:26:24;;;;;;;64.32;25.73;;;;;;;0.89;67.92;98536.88;5102694;29;20204;-75
2022/12/11 05:29:13;;;;;;;63.67;24.83;;;;;;;0.81;68.39;98507.81;5101961;29;20533;-74
2022/12/11 05:32:03;;;;;;;63.50;25.40;;;;;;;1.06;67.07;98533.22;5101614;29;20549;-74
2022/12/11 05:34:54;;;;;;;54.08;23.23;;;;;;;0.92;66.77;98527.09;5110047;29;20066;-74
2022/12/11 05:37:44;;;;;;;58.42;24.08;;;;;;;0.75;67.10;98536.91;5100732;29;20063;-73
2022/12/11 05:40:34;;;;;;;59.33;23.92;;;;;;;0.89;67.75;98534.28;5098769;29;20051;-73
2022/12/11 05:43:26;;;;;;;55.88;23.25;;;;;;;0.96;66.68;98534.75;5109226;29;20542;-74
2022/12/11 05:46:19;;;;;;;62.22;24.83;;;;;;;0.88;67.05;98532.63;5109402;29;20537;-75
2022/12/11 05:49:10;;;;;;;55.83;23.52;;;;;;;0.83;67.20;98535.50;5102919;29;20055;-74
2022/12/11 05:52:00;;;;;;;59.85;24.27;;;;;;;0.83;67.09;98532.03;5108015;29;20088;-74
2022/12/11 05:54:49;;;;;;;61.88;24.10;;;;;;;0.71;66.35;98520.59;5102129;29;20577;-75
2022/12/11 05:57:40;;;;;;;59.80;23.92;;;;;;;0.57;67.07;98512.78;5101863;29;20127;-73
2022/12/11 06:00:30;;;;;;;60.95;23.52;;;;;;;0.56;67.26;98500.66;5086147;29;20138;-74
2022/12/11 06:03:26;;;;;;;56.38;22.90;;;;;;;0.42;67.69;98489.28;5106765;29;20065;-75
2022/12/11 06:06:16;;;;;;;58.92;23.65;;;;;;;0.39;67.87;98499.06;5110000;29;20063;-75
2022/12/11 06:09:06;;;;;;;62.45;23.52;;;;;;;0.51;68.12;98498.34;5104994;29;20063;-75
2022/12/11 06:11:56;;;;;;;57.15;23.30;;;;;;;0.40;68.32;98479.91;5091629;29;20067;-75
2022/12/11 06:14:46;;;;;;;57.92;23.20;;;;;;;0.32;68.51;98488.16;5086527;29;20075;-75
2022/12/11 06:17:36;;;;;;;57.78;23.05;;;;;;;0.31;68.51;98490.88;5104264;29;20059;-75
2022/12/11 06:20:30;;;;;;;63.40;24.63;;;;;;;0.39;68.45;98489.47;5111210;29;20062;-75
2022/12/11 06:23:20;;;;;;;;;;;;;;;0.44;67.51;98495.25;5117322;29;20630;-76
2022/12/11 06:26:10;;;;;;;60.10;23.63;;;;;;;0.37;68.71;98501.78;5105041;29;19942;-76
2022/12/11 06:29:01;;;;;;;54.55;22.77;;;;;;;0.26;69.09;98488.53;5108118;29;20059;-76
2022/12/11 06:31:53;;;;;;;58.53;23.20;;;;;;;0.12;69.17;98476.31;5102875;29;20047;-75
2022/12/11 06:34:43;;;;;;;62.97;24.40;;;;;;;0.27;68.54;98492.84;5105267;29;20091;-75
2022/12/11 06:37:35;;;;;;;56.17;23.35;;;;;;;0.29;68.21;98500.53;5115961;29;20055;-75
2022/12/11 06:40:25;;;;;;;58.47;23.92;;;;;;;0.20;68.66;98484.53;5093120;29;20074;-75
2022/12/11 06:43:15;;;;;;;71.60;26.98;;;;;;;0.29;68.05;98490.13;5117752;29;20077;-76
2022/12/11 06:46:07;;;;;;;69.10;28.02;;;;;;;0.35;68.79;98493.19;5099284;29;20578;-76
2022/12/11 06:48:58;;;;;;;71.22;28.17;;;;;;;0.36;68.82;98492.25;5098023;29;20063;-74
2022/12/11 06:51:48;;;;;;;67.93;26.70;;;;;;;0.39;69.00;98488.63;5103508;29;20054;-75
2022/12/11 06:54:38;;;;;;;60.13;25.17;;;;;;;0.34;70.39;98504.56;5105693;29;20429;-75
2022/12/11 06:57:28;;;;;;;62.80;25.23;;;;;;;0.44;69.41;98497.88;5103295;29;20056;-76
2022/12/11 07:00:18;;;;;;;69.18;26.48;;;;;;;0.66;68.36;98510.47;5109023;29;20494;-75
2022/12/11 07:03:08;;;;;;;68.53;25.83;;;;;;;0.68;69.05;98505.13;5105369;29;20055;-75
2022/12/11 07:06:02;;;;;;;68.93;27.50;;;;;;;0.78;68.39;98508.00;5104304;29;20143;-75
2022/12/11 07:08:52;;;;;;;66.70;26.83;;;;;;;0.70;68.13;98500.66;5091744;29;20506;-75
2022/12/11 07:11:42;;;;;;;70.43;26.60;;;;;;;0.89;68.17;98523.84;5110385;29;20043;-75
2022/12/11 07:14:32;;;;;;;70.57;26.35;;;;;;;0.79;68.49;98523.56;5114000;29;20112;-74
2022/12/11 07:17:22;;;;;;;67.63;27.17;;;;;;;0.82;67.74;98514.72;5105758;29;20059;-75
2022/12/11 07:20:12;;;;;;;73.43;26.77;;;;;;;0.86;68.20;98534.47;5105530;29;20132;-75
2022/12/11 07:23:02;;;;;;;66.35;26.38;;;;;;;0.86;68.25;98527.50;5106146;29;20443;-74
2022/12/11 07:25:53;;;;;;;71.93;27.50;;;;;;;0.89;67.98;98519.47;5098904;29;20070;-74
2022/12/11 07:28:44;;;;;;;71.45;27.25;;;;;;;0.90;68.40;98526.38;5103500;29;20052;-75
2022/12/11 07:31:34;;;;;;;64.90;26.17;;;;;;;0.98;67.64;98532.88;5097922;29;20195;-75
2022/12/11 07:34:25;;;;;;;75.68;28.20;;;;;;;0.88;68.71;98515.19;5109597;29;20145;-74
2022/12/11 07:37:14;;;;;;;71.65;27.02;;;;;;;1.04;67.88;98529.91;5110536;29;20075;-75
2022/12/11 07:40:05;;;;;;;75.07;28.33;;;;;;;1.04;67.94;98532.50;5114396;29;20051;-75
2022/12/11 07:42:55;;;;;;;74.10;28.58;;;;;;;0.99;67.29;98521.50;5111068;29;20087;-75
2022/12/11 07:45:45;;;;;;;72.72;29.50;;;;;;;1.09;68.16;98527.81;5109133;29;20047;-74
2022/12/11 07:48:37;;;;;;;74.80;28.02;;;;;;;1.11;68.24;98526.81;5104229;29;20059;-75
2022/12/11 07:51:30;;;;;;;80.90;31.17;;;;;;;1.00;68.52;98541.47;5106331;29;20446;-73
2022/12/11 07:54:20;;;;;;;88.28;31.55;;;;;;;1.02;68.31;98544.81;5097856;29;20158;-72
2022/12/11 07:57:10;;;;;;;72.43;30.08;;;;;;;1.03;67.94;98525.63;5093236;29;20118;-73
2022/12/11 08:00:04;;;;;;;73.65;28.23;;;;;;;1.00;68.74;98541.47;5093080;29;20066;-71
2022/12/11 08:03:01;;;;;;;81.57;29.42;;;;;;;1.11;68.34;98534.63;5101321;29;20414;-70
2022/12/11 08:05:52;;;;;;;75.65;30.65;;;;;;;1.12;68.70;98533.69;5095420;29;20051;-70
2022/12/11 08:08:43;;;;;;;83.28;30.52;;;;;;;0.54;70.02;98539.06;5094984;29;20080;-69
2022/12/11 08:11:33;;;;;;;77.63;29.58;;;;;;;0.64;70.05;98537.56;5099425;29;20055;-71
2022/12/11 08:14:24;;;;;;;75.28;28.48;;;;;;;0.85;69.25;98533.63;5095196;29;20070;-69
2022/12/11 08:17:15;;;;;;;81.07;30.27;;;;;;;0.82;69.98;98527.75;5095326;29;20063;-69
2022/12/11 08:20:05;;;;;;;81.97;30.55;;;;;;;0.78;69.42;98527.13;5099019;29;20071;-70
2022/12/11 08:22:57;;;;;;;84.53;30.63;;;;;;;0.86;69.24;98516.19;5095406;29;20545;-71
2022/12/11 08:25:48;;;;;;;83.40;31.02;;;;;;;1.05;69.56;98515.91;5099873;29;20070;-72
2022/12/11 08:28:38;;;;;;;95.10;33.25;;;;;;;0.92;69.00;98513.22;5104993;29;20054;-72
2022/12/11 08:31:29;;;;;;;85.63;32.58;;;;;;;0.98;68.94;98528.50;5103951;29;20048;-71
2022/12/11 08:34:19;;;;;;;89.00;32.78;;;;;;;0.99;68.00;98524.13;5101000;29;20095;-70
2022/12/11 08:37:09;;;;;;;81.97;32.15;;;;;;;1.12;68.63;98525.84;5106000;29;20701;-71
2022/12/11 08:39:59;;;;;;;88.82;32.10;;;;;;;1.20;68.43;98524.56;5099928;29;20055;-71
2022/12/11 08:42:50;;;;;;;83.97;32.65;;;;;;;1.25;68.16;98525.09;5106139;29;20178;-72
2022/12/11 08:45:40;;;;;;;87.10;33.20;;;;;;;1.22;68.19;98522.66;5113659;28;20069;-70
2022/12/11 08:48:30;;;;;;;84.00;31.92;;;;;;;1.17;67.39;98522.97;5102022;29;20123;-71
2022/12/11 08:51:23;;;;;;;82.55;30.83;;;;;;;1.32;67.92;98532.44;5100485;29;20676;-71
2022/12/11 08:54:14;;;;;;;83.72;30.02;;;;;;;1.44;67.57;98524.78;5096362;29;20067;-69
2022/12/11 08:57:04;;;;;;;75.80;29.42;;;;;;;1.32;67.48;98511.53;5098914;29;20079;-71
2022/12/11 08:59:54;;;;;;;74.93;29.40;;;;;;;1.48;66.55;98536.69;5084867;29;20044;-72
2022/12/11 09:02:44;;;;;;;79.93;30.95;;;;;;;1.61;67.47;98529.75;5098591;29;20446;-72
2022/12/11 09:05:37;;;;;;;77.07;30.75;;;;;;;1.57;67.95;98528.28;5095716;29;20052;-70
2022/12/11 09:08:27;;;;;;;78.05;31.63;;;;;;;1.54;68.07;98525.84;5092405;29;20698;-71
2022/12/11 09:11:26;;;;;;;84.07;32.55;;;;;;;1.47;67.46;98522.81;5095259;29;20063;-70
2022/12/11 09:14:16;;;;;;;99.10;38.92;;;;;;;1.26;68.60;98514.56;5090778;29;20198;-70
2022/12/11 09:17:06;;;;;;;82.68;31.45;;;;;;;1.47;68.04;98537.63;5087484;29;20058;-69
2022/12/11 09:19:56;;;;;;;87.00;32.90;;;;;;;1.43;67.75;98520.50;5085589;29;20102;-71
2022/12/11 09:22:46;;;;;;;84.75;32.92;;;;;;;1.53;68.92;98534.63;5088111;29;20096;-69
2022/12/11 09:25:39;;;;;;;86.82;35.33;;;;;;;1.50;68.29;98529.59;5103186;29;20069;-69
2022/12/11 09:28:30;;;;;;;88.70;33.43;;;;;;;1.27;68.37;98526.69;5096047;29;20051;-69
2022/12/11 09:31:27;;;;;;;73.82;30.27;;;;;;;1.10;68.86;98526.91;5094813;29;20074;-69
2022/12/11 09:34:17;;;;;;;78.05;30.13;;;;;;;1.30;68.71;98528.28;5098227;29;20060;-70
2022/12/11 09:37:07;;;;;;;89.65;33.88;;;;;;;1.32;67.55;98531.59;5093930;29;20052;-69
2022/12/11 09:39:57;;;;;;;84.88;32.63;;;;;;;1.32;67.24;98527.22;5102522;29;20056;-69
2022/12/11 09:43:05;;;;;;;81.93;31.48;;;;;;;1.31;67.71;98522.94;5099157;29;20067;-71
2022/12/11 09:45:56;;;;;;;81.30;30.83;;;;;;;0.98;67.62;98501.56;5098493;29;20514;-70
2022/12/11 09:48:48;;;;;;;73.38;30.92;;;;;;;0.68;69.32;98524.22;5103380;29;20062;-70
2022/12/11 09:52:04;;;;;;;77.45;28.90;;;;;;;0.88;68.28;98514.34;5104554;29;20127;-70
2022/12/11 09:54:58;;;;;;;83.90;31.98;;;;;;;0.96;69.09;98506.88;5099002;28;20066;-69
2022/12/11 09:58:04;;;;;;;76.85;30.90;;;;;;;1.40;67.74;98513.69;5101533;29;20131;-70
2022/12/11 10:01:22;;;;;;;74.53;30.88;;;;;;;1.57;66.57;98509.97;5099505;29;20063;-70
2022/12/11 10:04:17;;;;;;;92.50;31.83;;;;;;;1.40;67.51;98493.63;5099748;29;20511;-70
2022/12/11 10:07:17;;;;;;;79.97;29.90;;;;;;;1.21;66.62;98511.41;5097392;29;20138;-70
2022/12/11 10:10:27;;;;;;;84.40;33.03;;;;;;;1.50;66.96;98508.72;5097773;29;20051;-70
2022/12/11 10:13:29;;;;;;;82.60;32.05;;;;;;;1.50;67.21;98508.72;5094970;29;20610;-71
2022/12/11 10:16:37;;;;;;;76.40;29.17;;;;;;;1.49;66.60;98509.63;5100030;29;20044;-70
2022/12/11 10:19:30;;;;;;;78.13;28.33;;;;;;;1.26;67.14;98500.66;5102694;29;20130;-71
2022/12/11 10:22:25;;;;;;;79.47;28.27;;;;;;;1.39;66.51;98504.16;5095578;29;20138;-70
2022/12/11 10:25:40;;;;;;;73.38;28.27;;;;;;;1.60;65.48;98489.72;5101523;29;20726;-69
2022/12/11 10:28:30;;;;;;;79.90;30.63;;;;;;;1.77;65.91;98479.94;5105884;29;20517;-73
2022/12/11 10:31:37;;;;;;;73.68;28.95;;;;;;;1.78;66.01;98464.13;5102013;29;20134;-69
2022/12/11 10:34:43;;;;;;;77.15;29.73;;;;;;;1.74;65.95;98488.81;5099203;29;20115;-70
2022/12/11 10:37:33;;;;;;;71.57;28.33;;;;;;;1.79;63.92;98470.22;5098498;29;20051;-70
2022/12/11 10:40:25;;;;;;;80.10;28.52;;;;;;;1.83;65.01;98475.13;5095841;29;20060;-70
2022/12/11 10:43:16;;;;;;;81.38;30.08;;;;;;;1.99;65.31;98468.91;5098597;29;20063;-69
2022/12/11 10:46:15;;;;;;;80.03;30.00;;;;;;;1.96;65.39;98456.03;5091116;29;20059;-71
2022/12/11 10:49:18;;;;;;;71.45;28.20;;;;;;;2.12;65.45;98469.75;5128125;23;20053;-68
2022/12/11 10:52:19;;;;;;;;;;;;;;;2.29;63.35;98465.97;5167097;28;20057;-69
2022/12/11 10:55:21;;;;;;;79.95;27.73;;;;;;;2.35;65.32;98463.78;5175962;28;19926;-69
2022/12/11 10:58:20;;;;;;;70.63;27.25;;;;;;;2.33;63.86;98449.97;5174611;28;20125;-69
2022/12/11 11:01:22;;;;;;;67.30;27.38;;;;;;;2.53;64.05;98450.38;5159613;28;20609;-71
2022/12/11 11:04:35;;;;;;;70.20;25.40;;;;;;;2.27;63.21;98458.22;5159929;28;20080;-70
2022/12/11 11:07:30;;;;;;;61.85;24.88;;;;;;;2.39;62.75;98450.50;5145413;28;20635;-68
2022/12/11 11:10:24;;;;;;;60.75;23.73;;;;;;;2.63;62.59;98442.72;5160679;28;20054;-69
2022/12/11 11:13:20;;;;;;;61.85;25.73;;;;;;;2.47;63.46;98437.72;5159000;28;20423;-70
2022/12/11 11:16:14;;;;;;;61.87;25.13;;;;;;;2.72;62.47;98442.91;5157679;28;20053;-67
2022/12/11 11:19:05;;;;;;;67.63;25.08;;;;;;;2.45;62.89;98434.34;5156226;28;20129;-69
2022/12/11 11:22:00;;;;;;;62.58;24.85;;;;;;;2.71;62.82;98440.38;5158096;28;20059;-69
2022/12/11 11:24:58;;;;;;;68.53;27.02;;;;;;;2.52;63.40;98430.38;5159789;28;20046;-68
2022/12/11 11:28:06;;;;;;;61.90;25.75;;;;;;;2.36;63.79;98435.84;5161439;28;20061;-69
2022/12/11 11:30:58;;;;;;;72.22;26.50;;;;;;;2.73;63.27;98431.47;5159574;28;20058;-69
2022/12/11 11:33:54;;;;;;;84.15;31.20;;;;;;;2.57;63.48;98429.09;5164834;28;20190;-68
2022/12/11 11:36:56;;;;;;;68.18;25.98;;;;;;;2.58;63.86;98412.47;5170599;28;20046;-69
2022/12/11 11:39:49;;;;;;;65.85;25.70;;;;;;;2.34;64.38;98415.00;5158659;28;20047;-69
2022/12/11 11:43:04;;;;;;;65.57;25.23;;;;;;;1.64;64.98;98423.25;5160313;28;20077;-69
2022/12/11 11:46:05;;;;;;;63.70;26.15;;;;;;;2.06;63.93;98423.09;5161610;28;20635;-68
2022/12/11 11:49:29;;;;;;;76.40;28.38;;;;;;;1.80;64.45;98422.22;5154798;28;20756;-68
2022/12/11 11:52:38;;;;;;;;;;;;;;;1.96;62.94;98420.25;5158122;28;20057;-68
2022/12/11 11:55:44;;;;;;;63.35;23.60;;;;;;;1.51;65.15;98421.53;5159909;28;20579;-69
2022/12/11 11:58:56;;;;;;;65.45;23.73;;;;;;;2.16;66.10;98423.28;5157181;28;20076;-68
2022/12/11 12:01:46;;;;;;;59.00;24.27;;;;;;;1.55;64.76;98425.63;5154553;28;20454;-70
2022/12/11 12:04:36;;;;;;;61.78;24.02;;;;;;;1.80;64.91;98412.59;5161732;28;20127;-69
2022/12/11 12:07:39;;;;;;;71.00;27.00;;;;;;;1.97;65.52;98419.31;5156766;28;20053;-69
2022/12/11 12:10:57;;;;;;;65.47;25.42;;;;;;;2.00;63.89;98416.50;5162488;28;20140;-70
2022/12/11 12:14:09;;;;;;;73.93;26.90;;;;;;;2.38;64.30;98418.25;5149427;28;20180;-69
2022/12/11 12:17:30;;;;;;;62.65;24.35;;;;;;;2.44;62.85;98417.81;5164198;28;20570;-68
2022/12/11 12:20:24;;;;;;;64.30;25.00;;;;;;;2.39;63.83;98416.47;5159665;28;20591;-75
2022/12/11 12:23:21;;;;;;;66.68;25.80;;;;;;;2.50;64.50;98411.31;5154314;28;20544;-70
2022/12/11 12:26:20;;;;;;;67.38;25.85;;;;;;;2.71;63.97;98407.19;5161209;28;20057;-69
2022/12/11 12:30:04;;;;;;;65.20;24.73;;;;;;;2.58;62.83;98415.09;5157635;28;20136;-72
2022/12/11 12:33:10;;;;;;;68.40;25.55;;;;;;;2.42;63.94;98411.00;5159285;28;20057;-68
2022/12/11 12:36:20;;;;;;;64.47;25.17;;;;;;;2.51;64.80;98418.22;5161429;28;20073;-71
2022/12/11 12:39:39;;;;;;;65.40;26.20;;;;;;;2.51;63.88;98411.19;5158615;28;20073;-69
2022/12/11 12:42:29;;;;;;;68.80;25.50;;;;;;;2.49;64.93;98410.50;5158108;28;20056;-71
2022/12/11 12:45:39;;;;;;;73.07;26.52;;;;;;;2.54;63.89;98408.38;5162029;28;20097;-67
2022/12/11 12:48:29;;;;;;;67.38;25.73;;;;;;;2.68;63.67;98404.81;5156154;28;20054;-69
2022/12/11 12:51:20;;;;;;;63.40;25.35;;;;;;;2.62;64.31;98392.16;5160237;28;20527;-69
2022/12/11 12:54:14;;;;;;;62.58;25.95;;;;;;;2.63;64.01;98385.13;5159233;28;20077;-73
2022/12/11 12:57:05;;;;;;;66.22;26.88;;;;;;;2.77;64.87;98390.22;5160733;28;20136;-69
2022/12/11 12:59:55;;;;;;;71.35;25.48;;;;;;;2.85;62.55;98387.03;5153206;28;20065;-72
2022/12/11 13:02:49;;;;;;;62.00;25.45;;;;;;;2.85;63.43;98384.41;5169958;28;20057;-68
2022/12/11 13:05:42;;;;;;;59.70;24.10;;;;;;;2.57;63.67;98375.91;5159719;28;20062;-70
2022/12/11 13:08:40;;;;;;;66.00;25.27;;;;;;;2.86;63.08;98392.19;5158833;28;20208;-71
2022/12/11 13:11:35;;;;;;;56.08;23.30;;;;;;;2.89;63.23;98385.88;5165766;28;20444;-69
2022/12/11 13:14:31;;;;;;;60.28;24.30;;;;;;;2.77;62.18;98396.28;5145377;28;20065;-70
2022/12/11 13:17:35;;;;;;;61.22;25.55;;;;;;;2.36;63.44;98373.06;5143761;28;20054;-70
2022/12/11 13:20:50;;;;;;;59.25;23.90;;;;;;;2.65;64.74;98370.13;5159403;28;20142;-72
2022/12/11 13:23:48;;;;;;;66.80;26.90;;;;;;;2.89;63.71;98388.50;5164133;28;20057;-68
2022/12/11 13:26:40;;;;;;;71.88;26.50;;;;;;;2.38;64.40;98388.63;5159050;28;20046;-70
2022/12/11 13:29:38;;;;;;;64.20;25.23;;;;;;;2.88;63.30;98390.28;5160473;28;20057;-69
2022/12/11 13:32:30;;;;;;;81.60;28.98;;;;;;;2.33;63.84;98389.78;5153272;28;20440;-69
2022/12/11 13:35:20;;;;;;;71.63;26.63;;;;;;;2.73;64.28;98371.28;5155687;28;20086;-72
2022/12/11 13:38:19;;;;;;;71.30;26.73;;;;;;;2.85;64.26;98392.28;5157054;28;20530;-69
2022/12/11 13:41:11;;;;;;;67.40;26.35;;;;;;;2.90;63.49;98390.16;5155677;28;20057;-74
2022/12/11 13:44:01;;;;;;;72.47;27.40;;;;;;;2.91;64.39;98399.69;5158469;28;20120;-74
2022/12/11 13:46:54;;;;;;;71.25;27.40;;;;;;;2.88;64.12;98397.28;5155621;28;20051;-70
2022/12/11 13:49:48;;;;;;;73.25;28.55;;;;;;;2.94;63.85;98408.16;5150790;28;20118;-72